Latest Weather Observations for Collie East

IDW60801

Issued at 8:03 pm WST Tuesday 28 February 2017 (issued every 30 minutes, with the page automatically refreshed every 10 minutes)

About weather observations | Map of weather stations | Latest weather observations for WA | Other Formats
Station Details ID: 009994 Name: COLLIE EAST Lat: -33.36 Lon: 116.17 Height: 200.0 m
Data from the previous 72 hours. | See also: Recent months at Collie East
Date/Time
WST
Temp
°C
App
Temp
°C
Dew
Point
°C
Rel
Hum
%
Delta-T
°C
Wind Press
QNH
hPa
Press
MSL
hPa
Rain since
9am
mm
Dir  Spd
km/h
Gust
km/h
Spd
kts
Gust
kts
28/08:00pm 23.6 25.4 15.4 60 5.0 CALM 0 0 0 0 - - 0.0
28/07:30pm 25.2 26.3 15.5 55 5.9 SE 4 6 2 3 - - 0.0
28/07:00pm 27.1 27.6 15.1 47 7.3 ESE 6 7 3 4 - - 0.0
28/06:30pm 29.9 29.8 14.0 37 9.6 ESE 7 11 4 6 - - 0.0
28/06:00pm 30.5 30.7 14.6 38 9.8 SE 7 9 4 5 - - 0.0
28/05:30pm 31.4 31.3 13.2 33 11.0 ESE 6 9 3 5 - - 0.0
28/05:00pm 31.4 31.4 13.6 33 10.8 SSE 6 9 3 5 - - 0.0
28/04:30pm 32.4 32.0 14.1 33 11.2 SSE 9 13 5 7 - - 0.0
28/04:00pm 32.2 31.7 13.9 33 11.2 SE 9 15 5 8 - - 0.0
28/03:30pm 32.0 31.6 14.2 34 10.9 E 9 20 5 11 - - 0.0
28/03:00pm 32.2 32.8 15.2 35 10.6 ESE 6 13 3 7 - - 0.0
28/02:30pm 31.1 29.1 13.8 34 10.5 E 17 28 9 15 - - 0.0
28/02:00pm 30.9 29.8 13.2 34 10.7 E 11 20 6 11 - - 0.0
28/01:30pm 30.2 29.4 13.9 37 9.9 ESE 11 20 6 11 - - 0.0
28/01:00pm 29.7 28.9 13.9 38 9.6 ESE 11 22 6 12 - - 0.0
28/12:30pm 28.7 27.3 13.4 39 9.2 SE 13 22 7 12 - - 0.0
28/12:00pm 27.5 26.8 14.2 44 8.0 SE 11 22 6 12 - - 0.0
28/11:30am 26.6 25.9 14.4 47 7.4 SE 11 19 6 10 - - 0.0
28/11:00am 26.0 25.4 14.5 49 6.9 E 11 19 6 10 - - 0.0
28/10:30am 24.7 24.0 14.2 52 6.3 ESE 11 20 6 11 - - 0.0
28/10:00am 23.8 23.2 14.5 56 5.6 ESE 11 17 6 9 - - 0.0
28/09:30am 22.5 22.6 14.4 60 4.8 ESE 7 13 4 7 - - 0.0
28/09:00am 20.7 19.9 13.9 65 4.0 SE 11 20 6 11 - - 0.0
28/08:30am 19.9 19.6 14.3 70 3.3 E 9 17 5 9 - - 0.0
28/08:00am 18.0 16.8 13.9 77 2.4 SE 13 20 7 11 - - 0.0
28/07:30am 17.3 16.8 13.8 80 2.0 SE 9 15 5 8 - - 0.0
28/07:00am 15.7 15.6 13.4 86 1.3 SE 6 9 3 5 - - 0.0
28/06:30am 14.9 14.7 13.1 89 1.0 ESE 6 7 3 4 - - 0.0
28/06:00am 14.6 14.7 12.8 89 1.0 ESE 4 6 2 3 - - 0.0
28/05:30am 14.7 15.1 12.6 87 1.2 ESE 2 6 1 3 - - 0.0
28/05:00am 15.6 15.5 13.4 87 1.2 SE 6 9 3 5 - - 0.0
28/04:30am 15.9 15.9 13.7 87 1.2 ESE 6 9 3 5 - - 0.0
28/04:00am 16.1 16.9 13.6 85 1.4 SE 2 7 1 4 - - 0.0
28/03:30am 16.8 16.9 13.9 83 1.7 SE 6 9 3 5 - - 0.0
28/03:00am 17.2 17.2 14.3 83 1.7 ESE 7 13 4 7 - - 0.0
28/02:30am 17.5 17.7 14.6 83 1.7 SE 7 15 4 8 - - 0.0
28/02:00am 18.0 18.5 14.9 82 1.8 SE 6 11 3 6 - - 0.0
28/01:30am 18.4 18.3 14.9 80 2.1 SE 9 13 5 7 - - 0.0
28/01:00am 18.8 19.1 15.1 79 2.2 SSE 7 13 4 7 - - 0.0
28/12:30am 19.3 19.4 15.4 78 2.3 SE 9 17 5 9 - - 0.0
28/12:00am 19.7 19.8 15.4 76 2.6 SSE 9 15 5 8 - - 0.0
 
Date/Time
WST
Temp
°C
App
Temp
°C
Dew
Point
°C
Rel
Hum
%
Delta-T
°C
Wind Press
QNH
hPa
Press
MSL
hPa
Rain since
9am
mm
Dir  Spd
km/h
Gust
km/h
Spd
kts
Gust
kts
27/11:30pm 20.0 20.1 15.4 75 2.7 S 9 17 5 9 - - 0.0
27/11:00pm 20.4 20.9 15.6 74 2.9 S 7 15 4 8 - - 0.0
27/10:30pm 21.3 21.7 15.4 69 3.5 SSE 7 11 4 6 - - 0.0
27/10:00pm 21.9 22.3 15.3 66 4.0 SSW 7 11 4 6 - - 0.0
27/09:30pm 22.2 22.5 15.1 64 4.3 ESE 7 13 4 7 - - 0.0
27/09:00pm 22.4 22.7 15.0 63 4.4 SSE 7 13 4 7 - - 0.0
27/08:30pm 22.9 23.0 14.5 59 5.0 SSE 7 19 4 10 - - 0.0
27/08:00pm 23.7 23.8 14.4 56 5.5 SSE 7 15 4 8 - - 0.0
27/07:30pm 24.7 24.6 13.9 51 6.4 S 7 19 4 10 - - 0.0
27/07:00pm 25.3 25.6 13.5 48 7.0 S 4 9 2 5 - - 0.0
27/06:30pm 26.3 26.0 13.4 45 7.6 S 7 15 4 8 - - 0.0
27/06:00pm 27.4 27.4 13.7 43 8.2 SSW 6 13 3 7 - - 0.0
27/05:30pm 28.1 27.3 11.6 36 9.6 SSW 7 11 4 6 - - 0.0
27/05:00pm 29.1 28.6 12.1 35 10.0 SW 6 9 3 5 - - 0.0
27/04:30pm 29.9 28.5 12.3 33 10.4 WSW 11 17 6 9 - - 0.0
27/04:00pm 30.5 29.5 12.4 33 10.7 W 9 15 5 8 - - 0.0
27/03:30pm 29.9 29.3 12.3 33 10.4 WSW 7 13 4 7 - - 0.0
27/03:00pm 29.9 29.4 12.8 35 10.2 WSW 7 15 4 8 - - 0.0
27/02:30pm 29.3 27.9 12.3 35 10.0 SSW 11 19 6 10 - - 0.0
27/02:00pm 28.8 28.2 12.2 35 9.8 S 7 11 4 6 - - 0.0
27/01:30pm 28.3 27.7 13.4 40 8.9 S 9 15 5 8 - - 0.0
27/01:00pm 28.5 28.5 14.3 41 8.6 WSW 7 13 4 7 - - 0.0
27/12:30pm 26.9 26.5 12.9 42 8.2 ESE 7 11 4 6 - - 0.0
27/12:00pm 26.3 26.3 14.1 47 7.3 ESE 7 17 4 9 - - 0.0
27/11:30am 25.0 24.5 13.9 50 6.6 SE 9 13 5 7 - - 0.0
27/11:00am 24.0 23.3 13.2 50 6.3 S 9 13 5 7 - - 0.0
27/10:30am 23.1 23.0 13.8 55 5.5 ESE 7 13 4 7 - - 0.0
27/10:00am 22.5 22.4 14.9 62 4.5 E 9 13 5 7 - - 0.0
27/09:30am 20.7 19.6 13.2 62 4.3 ESE 11 17 6 9 - - 0.0
27/09:00am 20.2 19.9 14.3 69 3.5 ESE 9 17 5 9 - - 0.0
27/08:30am 18.6 18.4 13.5 72 2.9 ESE 7 11 4 6 - - 0.0
27/08:00am 16.8 16.0 12.9 78 2.2 SE 9 15 5 8 - - 0.0
27/07:30am 15.8 15.3 12.5 81 1.8 SSE 7 11 4 6 - - 0.0
27/07:00am 14.3 13.7 12.2 87 1.1 ESE 7 9 4 5 - - 0.0
27/06:30am 13.5 13.3 11.9 90 0.9 SE 4 6 2 3 - - 0.0
27/06:00am 12.9 12.9 11.3 90 0.9 SE 2 6 1 3 - - 0.0
27/05:30am 12.9 12.9 11.3 90 0.9 ESE 2 6 1 3 - - 0.0
27/05:00am 13.1 13.6 11.5 90 0.9 CALM 0 0 0 0 - - 0.0
27/04:30am 13.3 13.8 11.7 90 0.9 CALM 0 0 0 0 - - 0.0
27/04:00am 13.3 13.7 11.4 88 1.0 CALM 0 0 0 0 - - 0.0
27/03:30am 13.9 14.5 11.9 88 1.1 CALM 0 0 0 0 - - 0.0
27/03:00am 14.1 14.7 12.0 87 1.1 CALM 0 0 0 0 - - 0.0
27/02:30am 14.6 15.3 12.1 85 1.4 CALM 0 0 0 0 - - 0.0
27/02:00am 15.1 15.8 12.2 83 1.6 CALM 0 0 0 0 - - 0.0
27/01:30am 15.6 16.4 12.4 81 1.8 CALM 0 0 0 0 - - 0.0
27/01:00am 16.2 16.7 12.7 80 2.0 SE 2 6 1 3 - - 0.0
27/12:30am 16.4 16.8 12.4 77 2.2 SE 2 7 1 4 - - 0.0
27/12:00am 17.3 17.4 12.8 75 2.5 SE 4 9 2 5 - - 0.0
 
Date/Time
WST
Temp
°C
App
Temp
°C
Dew
Point
°C
Rel
Hum
%
Delta-T
°C
Wind Press
QNH
hPa
Press
MSL
hPa
Rain since
9am
mm
Dir  Spd
km/h
Gust
km/h
Spd
kts
Gust
kts
26/11:30pm 17.6 17.6 12.5 72 2.9 SSE 4 7 2 4 - - 0.0
26/11:00pm 18.2 18.6 12.6 70 3.2 S 2 7 1 4 - - 0.0
26/10:30pm 19.3 19.4 12.8 66 3.7 SE 4 9 2 5 - - 0.0
26/10:00pm 19.7 19.5 12.9 65 3.9 S 6 11 3 6 - - 0.0
26/09:30pm 20.3 20.3 13.5 65 3.9 SSE 6 9 3 5 - - 0.0
26/09:00pm 20.9 21.3 13.8 64 4.1 S 4 9 2 5 - - 0.0
26/08:30pm 22.1 22.0 14.0 60 4.8 S 7 15 4 8 - - 0.0
26/08:00pm 23.0 23.2 14.6 59 5.0 SSW 7 11 4 6 - - 0.0
26/07:30pm 24.1 24.2 14.5 55 5.7 SW 7 17 4 9 - - 0.0
26/07:00pm 25.5 25.2 14.3 50 6.7 SW 9 15 5 8 - - 0.0
26/06:30pm 27.5 27.4 13.8 43 8.2 WSW 7 13 4 7 - - 0.0
26/06:00pm 28.4 27.3 13.1 39 9.1 NW 11 19 6 10 - - 0.0
26/05:30pm 29.4 28.3 13.2 37 9.7 NW 11 20 6 11 - - 0.0
26/05:00pm 31.3 30.0 11.1 29 11.8 W 9 15 5 8 - - 0.0
26/04:30pm 31.5 30.6 11.3 29 11.8 WSW 7 13 4 7 - - 0.0
26/04:00pm 31.7 30.8 12.5 31 11.5 W 9 15 5 8 - - 0.0
26/03:30pm 31.6 30.1 11.9 30 11.7 WNW 11 19 6 10 - - 0.0
26/03:00pm 31.6 30.6 12.4 31 11.4 WSW 9 15 5 8 - - 0.0
26/02:30pm 31.2 30.6 13.5 34 10.7 SSW 9 13 5 7 - - 0.0
26/02:00pm 30.6 29.8 13.0 34 10.5 W 9 15 5 8 - - 0.0
26/01:30pm 30.2 29.9 12.6 34 10.5 SW 6 11 3 6 - - 0.0
26/01:00pm 29.1 29.0 13.3 37 9.5 SSW 6 11 3 6 - - 0.0
26/12:30pm 28.2 27.1 12.1 37 9.4 S 9 13 5 7 - - 0.0
26/12:00pm 27.6 26.9 13.2 41 8.6 SSE 9 15 5 8 - - 0.0
26/11:30am 26.7 26.4 13.4 43 7.9 SE 7 13 4 7 - - 0.0
26/11:00am 25.3 24.7 13.5 48 7.0 E 9 13 5 7 - - 0.0
26/10:30am 24.4 24.2 13.6 51 6.4 S 7 17 4 9 - - 0.0
26/10:00am 23.9 23.6 13.2 51 6.3 SSE 7 15 4 8 - - 0.0
26/09:30am 22.5 22.0 12.7 54 5.6 SSE 7 15 4 8 - - 0.0
26/09:00am 21.4 21.0 13.1 59 4.8 SSE 7 9 4 5 - - 0.0
26/08:30am 19.8 18.6 12.8 64 4.0 SSE 11 17 6 9 - - 0.0
26/08:00am 18.5 18.4 14.0 75 2.6 SSE 7 13 4 7 - - 0.0
26/07:30am 16.7 16.5 13.6 82 1.8 SSE 7 17 4 9 - - 0.0
26/07:00am 15.5 15.5 13.7 89 1.0 SE 6 11 3 6 - - 0.0
26/06:30am 14.4 14.6 13.0 91 0.8 SSW 4 9 2 5 - - 0.0
26/06:00am 14.6 15.5 13.0 90 0.9 CALM 0 0 0 0 - - 0.0
26/05:30am 15.0 16.0 13.2 89 1.0 CALM 0 6 0 3 - - 0.0
26/05:00am 15.4 15.7 13.4 88 1.1 ESE 4 7 2 4 - - 0.0
26/04:30am 15.7 15.7 13.7 88 1.1 SE 6 11 3 6 - - 0.0
26/04:00am 15.8 17.1 14.0 89 1.0 CALM 0 0 0 0 - - 0.0
26/03:30am 15.7 16.8 13.5 87 1.2 CALM 0 0 0 0 - - 0.0
26/03:00am 16.4 17.6 13.9 85 1.4 CALM 0 0 0 0 - - 0.0
26/02:30am 17.0 17.2 14.3 84 1.6 SSE 6 9 3 5 - - 0.0
26/02:00am 17.5 17.8 14.6 83 1.7 S 6 15 3 8 - - 0.0
26/01:30am 16.7 17.7 14.3 86 1.4 SSE 2 9 1 5 - - 0.0
26/01:00am 15.7 16.5 12.5 81 1.8 CALM 0 0 0 0 - - 0.0
26/12:30am 15.8 16.4 11.8 77 2.2 CALM 0 0 0 0 - - 0.0
26/12:00am 16.0 16.6 11.8 76 2.3 CALM 0 0 0 0 - - 0.0
 
Date/Time
WST
Temp
°C
App
Temp
°C
Dew
Point
°C
Rel
Hum
%
Delta-T
°C
Wind Press
QNH
hPa
Press
MSL
hPa
Rain since
9am
mm
Dir  Spd
km/h
Gust
km/h
Spd
kts
Gust
kts
25/11:30pm 16.5 16.9 11.4 72 2.8 CALM 0 0 0 0 - - 0.0
25/11:00pm 17.2 17.8 11.9 71 2.9 CALM 0 0 0 0 - - 0.0
25/10:30pm 17.3 17.8 11.6 69 3.1 CALM 0 0 0 0 - - 0.0
25/10:00pm 18.0 18.6 11.8 67 3.4 CALM 0 0 0 0 - - 0.0
25/09:30pm 19.0 19.6 11.8 63 4.0 CALM 0 0 0 0 - - 0.0
25/09:00pm 19.9 20.4 11.7 59 4.6 CALM 0 0 0 0 - - 0.0
25/08:30pm 21.2 21.7 11.5 54 5.4 CALM 0 0 0 0 - - 0.0

Other Formats:

Comma delimited format used in spreadsheet applications
http://www.bom.gov.au/fwo/IDW60801/IDW60801.95621.axf

JavaScript Object Notation format (JSON) in row-major order
http://www.bom.gov.au/fwo/IDW60801/IDW60801.95621.json